Time;durP1;ratioP1;P1;durP2;ratioP2;P2;SDS_P1;SDS_P2;PMS_P1;PMS_P2;Temp;Humidity;BMP_temperature;BMP_pressure;BME280_temperature;BME280_humidity;BME280_pressure;Samples;Min_cycle;Max_cycle;Signal;HPM_P1;HPM_P2
2023/02/22 00:00:28;;;;;;;3.40;3.10;;;;;;;;;;2091124;28;20111;-69
2023/02/22 00:01:49;;;;;;;2.88;2.65;;;;;;;;;;2091778;28;20036;-70
2023/02/22 00:03:09;;;;;;;3.50;3.20;;;;;;;;;;2093628;28;20064;-70
2023/02/22 00:04:28;;;;;;;3.63;3.33;;;;;;;;;;2092719;28;20496;-69
2023/02/22 00:05:50;;;;;;;4.10;2.83;;;;;;;;;;2092461;28;20032;-70
2023/02/22 00:07:09;;;;;;;3.30;3.00;;;;;;;;;;2093695;28;20032;-69
2023/02/22 00:08:29;;;;;;;3.53;2.90;;;;;;;;;;2085018;28;20529;-69
2023/02/22 00:09:48;;;;;;;3.40;3.10;;;;;;;;;;2089607;28;20036;-69
2023/02/22 00:11:07;;;;;;;4.55;3.28;;;;;;;;;;2094861;28;20028;-69
2023/02/22 00:12:28;;;;;;;4.07;3.67;;;;;;;;;;2093478;28;20021;-69
2023/02/22 00:13:49;;;;;;;5.10;3.15;;;;;;;;;;2093004;28;20060;-69
2023/02/22 00:15:09;;;;;;;3.47;3.03;;;;;;;;;;2093894;28;20489;-70
2023/02/22 00:16:29;;;;;;;3.45;3.15;;;;;;;;;;2094992;28;20040;-69
2023/02/22 00:17:48;;;;;;;3.05;2.78;;;;;;;;;;2094223;28;20028;-70
2023/02/22 00:19:09;;;;;;;3.40;3.10;;;;;;;;;;2093065;28;20056;-69
2023/02/22 00:20:28;;;;;;;3.13;2.92;;;;;;;;;;2092997;28;20017;-69
2023/02/22 00:21:51;;;;;;;3.90;3.13;;;;;;;;;;2095942;28;20029;-70
2023/02/22 00:23:15;;;;;;;3.30;3.00;;;;;;;;;;2095812;28;20377;-69
2023/02/22 00:24:34;;;;;;;3.15;2.85;;;;;;;;;;2094330;28;20017;-69
2023/02/22 00:25:55;;;;;;;3.45;3.15;;;;;;;;;;2095687;28;20017;-70
2023/02/22 00:27:14;;;;;;;3.63;2.90;;;;;;;;;;2095346;28;20020;-69
2023/02/22 00:28:33;;;;;;;3.40;3.10;;;;;;;;;;2094469;28;20420;-69
2023/02/22 00:29:52;;;;;;;3.17;2.88;;;;;;;;;;2094753;28;20021;-70
2023/02/22 00:31:10;;;;;;;3.38;2.90;;;;;;;;;;2096832;28;20107;-70
2023/02/22 00:32:29;;;;;;;3.28;2.97;;;;;;;;;;2094782;28;20489;-69
2023/02/22 00:33:48;;;;;;;3.40;3.13;;;;;;;;;;2093219;28;20040;-70
2023/02/22 00:35:07;;;;;;;3.80;3.30;;;;;;;;;;2095095;28;20025;-69
2023/02/22 00:36:26;;;;;;;2.70;2.50;;;;;;;;;;2094545;28;20032;-70
2023/02/22 00:37:49;;;;;;;3.22;3.00;;;;;;;;;;2094862;28;20032;-70
2023/02/22 00:39:08;;;;;;;3.50;3.17;;;;;;;;;;2095256;28;20025;-70
2023/02/22 00:40:29;;;;;;;3.00;2.80;;;;;;;;;;2093065;28;20090;-70
2023/02/22 00:41:48;;;;;;;3.15;2.95;;;;;;;;;;2094449;28;20493;-70
2023/02/22 00:43:07;;;;;;;2.92;2.72;;;;;;;;;;2096558;28;20040;-70
2023/02/22 00:44:27;;;;;;;3.13;2.72;;;;;;;;;;2095301;28;20021;-70
2023/02/22 00:45:47;;;;;;;3.58;3.28;;;;;;;;;;2093360;28;20037;-70
2023/02/22 00:47:07;;;;;;;3.63;3.30;;;;;;;;;;2095918;28;20133;-70
2023/02/22 00:48:27;;;;;;;3.63;2.78;;;;;;;;;;2093355;28;20217;-70
2023/02/22 00:49:46;;;;;;;3.05;2.85;;;;;;;;;;2094336;28;20029;-70
2023/02/22 00:51:05;;;;;;;3.20;2.95;;;;;;;;;;2095627;28;20033;-70
2023/02/22 00:52:24;;;;;;;3.25;2.88;;;;;;;;;;2094557;28;20133;-70
2023/02/22 00:53:44;;;;;;;3.05;2.75;;;;;;;;;;2093957;28;20115;-70
2023/02/22 00:55:07;;;;;;;3.22;3.03;;;;;;;;;;2096814;28;20044;-70
2023/02/22 00:56:26;;;;;;;3.10;2.83;;;;;;;;;;2092964;28;20036;-70
2023/02/22 00:57:45;;;;;;;3.50;3.20;;;;;;;;;;2087228;28;20041;-70
2023/02/22 00:59:04;;;;;;;3.25;2.95;;;;;;;;;;2091694;28;20393;-70
2023/02/22 01:00:42;;;;;;;3.42;3.13;;;;;;;;;;2094351;28;20032;-70
2023/02/22 01:02:00;;;;;;;3.13;2.92;;;;;;;;;;2094237;28;20032;-70
2023/02/22 01:03:20;;;;;;;3.30;3.00;;;;;;;;;;2093274;28;20036;-70
2023/02/22 01:04:39;;;;;;;2.83;2.63;;;;;;;;;;2088438;28;20020;-70
2023/02/22 01:05:58;;;;;;;3.25;2.95;;;;;;;;;;2088388;28;21137;-70
2023/02/22 01:07:17;;;;;;;3.60;2.90;;;;;;;;;;2092468;28;20028;-69
2023/02/22 01:08:36;;;;;;;3.80;3.03;;;;;;;;;;2093854;28;20032;-70
2023/02/22 01:09:54;;;;;;;2.92;2.72;;;;;;;;;;2094158;28;20036;-70
2023/02/22 01:11:15;;;;;;;3.00;2.70;;;;;;;;;;2087055;28;20146;-70
2023/02/22 01:12:34;;;;;;;4.10;2.75;;;;;;;;;;2092002;28;20462;-70
2023/02/22 01:13:54;;;;;;;3.22;2.92;;;;;;;;;;2094217;28;20123;-69
2023/02/22 01:15:13;;;;;;;3.15;2.90;;;;;;;;;;2095235;28;20111;-70
2023/02/22 01:16:34;;;;;;;3.25;2.90;;;;;;;;;;2092257;28;20111;-70
2023/02/22 01:17:52;;;;;;;5.45;2.90;;;;;;;;;;2093261;28;20394;-70
2023/02/22 01:19:11;;;;;;;3.20;2.90;;;;;;;;;;2093834;28;20343;-69
2023/02/22 01:20:31;;;;;;;3.40;3.10;;;;;;;;;;2094276;28;20064;-69
2023/02/22 01:21:50;;;;;;;3.40;3.10;;;;;;;;;;2093579;28;20024;-69
2023/02/22 01:23:09;;;;;;;3.38;2.85;;;;;;;;;;2095232;28;20115;-69
2023/02/22 01:24:28;;;;;;;4.45;3.22;;;;;;;;;;2092878;28;20032;-69
2023/02/22 01:25:47;;;;;;;3.30;3.00;;;;;;;;;;2094566;28;20033;-69
2023/02/22 01:27:06;;;;;;;3.28;3.08;;;;;;;;;;2095692;28;20036;-69
2023/02/22 01:28:25;;;;;;;3.95;3.13;;;;;;;;;;2093243;28;20036;-69
2023/02/22 01:29:44;;;;;;;2.90;2.70;;;;;;;;;;2094047;28;20029;-69
2023/02/22 01:31:03;;;;;;;3.10;2.90;;;;;;;;;;2093976;28;20045;-70
2023/02/22 01:32:23;;;;;;;3.95;3.17;;;;;;;;;;2093566;28;20032;-69
2023/02/22 01:33:42;;;;;;;3.65;3.35;;;;;;;;;;2095945;28;20033;-69
2023/02/22 01:35:03;;;;;;;3.22;2.90;;;;;;;;;;2095361;28;20024;-69
2023/02/22 01:36:23;;;;;;;3.67;3.38;;;;;;;;;;2093341;28;20029;-69
2023/02/22 01:37:42;;;;;;;3.60;3.15;;;;;;;;;;2096832;28;20029;-69
2023/02/22 01:39:01;;;;;;;3.72;3.35;;;;;;;;;;2095470;28;20025;-69
2023/02/22 01:40:22;;;;;;;3.70;3.38;;;;;;;;;;2086132;28;20568;-69
2023/02/22 01:41:41;;;;;;;2.90;2.70;;;;;;;;;;2091117;28;20036;-69
2023/02/22 01:43:02;;;;;;;3.40;3.00;;;;;;;;;;2094258;28;20404;-69
2023/02/22 01:44:26;;;;;;;3.60;3.10;;;;;;;;;;2093369;28;20480;-69
2023/02/22 01:45:53;;;;;;;5.03;3.22;;;;;;;;;;2093739;28;20029;-69
2023/02/22 01:47:12;;;;;;;3.63;3.03;;;;;;;;;;2095162;28;20054;-68
2023/02/22 01:48:44;;;;;;;3.22;2.92;;;;;;;;;;2093364;28;20060;-68
2023/02/22 01:50:02;;;;;;;3.88;3.47;;;;;;;;;;2093108;28;20041;-69
2023/02/22 01:51:24;;;;;;;3.80;3.30;;;;;;;;;;2095551;28;20040;-69
2023/02/22 01:52:43;;;;;;;5.13;3.13;;;;;;;;;;2085195;28;20041;-69
2023/02/22 01:54:06;;;;;;;3.17;2.97;;;;;;;;;;2087004;28;20040;-69
2023/02/22 01:55:26;;;;;;;3.78;3.35;;;;;;;;;;2094562;28;20606;-68
2023/02/22 01:56:49;;;;;;;3.15;2.67;;;;;;;;;;2092624;28;20493;-69
2023/02/22 01:58:08;;;;;;;4.70;3.42;;;;;;;;;;2094090;28;21096;-68
2023/02/22 01:59:28;;;;;;;3.25;2.95;;;;;;;;;;2087330;28;20505;-69
2023/02/22 02:00:47;;;;;;;2.90;2.70;;;;;;;;;;2089731;28;20029;-69
2023/02/22 02:02:06;;;;;;;3.28;2.97;;;;;;;;;;2085507;28;20737;-69
2023/02/22 02:03:27;;;;;;;3.88;3.45;;;;;;;;;;2092597;28;20024;-69
2023/02/22 02:04:47;;;;;;;3.35;3.05;;;;;;;;;;2092485;28;20017;-69
2023/02/22 02:06:10;;;;;;;3.65;3.33;;;;;;;;;;2095254;28;20040;-69
2023/02/22 02:07:29;;;;;;;3.47;3.17;;;;;;;;;;2095095;28;20028;-69
2023/02/22 02:08:52;;;;;;;3.83;3.15;;;;;;;;;;2094002;28;20040;-68
2023/02/22 02:10:14;;;;;;;3.45;3.15;;;;;;;;;;2093339;28;20028;-69
2023/02/22 02:11:33;;;;;;;3.97;3.38;;;;;;;;;;2095935;28;20024;-69
2023/02/22 02:12:52;;;;;;;4.80;3.47;;;;;;;;;;2095259;28;20028;-69
2023/02/22 02:14:11;;;;;;;3.00;2.70;;;;;;;;;;2084501;28;20025;-69
2023/02/22 02:15:31;;;;;;;3.72;3.42;;;;;;;;;;2090504;28;20119;-69
2023/02/22 02:16:52;;;;;;;3.80;3.50;;;;;;;;;;2094807;28;20095;-69
2023/02/22 02:18:11;;;;;;;4.32;3.30;;;;;;;;;;2093702;28;20179;-69
2023/02/22 02:19:40;;;;;;;3.67;3.38;;;;;;;;;;2092812;28;20029;-69
2023/02/22 02:21:13;;;;;;;4.15;3.53;;;;;;;;;;2094555;28;20021;-68
2023/02/22 02:23:05;;;;;;;3.30;3.10;;;;;;;;;;2089119;28;20032;-69
2023/02/22 02:24:38;;;;;;;4.50;3.83;;;;;;;;;;2063318;28;20120;-68
2023/02/22 02:26:16;;;;;;;3.65;3.35;;;;;;;;;;2092692;28;20489;-69
2023/02/22 02:27:49;;;;;;;3.38;3.08;;;;;;;;;;2095153;28;20107;-69
2023/02/22 02:29:21;;;;;;;3.60;3.30;;;;;;;;;;2093401;28;20486;-69
2023/02/22 02:31:04;;;;;;;4.18;3.28;;;;;;;;;;2092135;28;20036;-68
2023/02/22 02:32:26;;;;;;;4.03;3.63;;;;;;;;;;2094629;28;20151;-69
2023/02/22 02:33:48;;;;;;;2.75;2.55;;;;;;;;;;2094711;28;20072;-69
2023/02/22 02:35:26;;;;;;;3.60;2.85;;;;;;;;;;2096231;28;20036;-69
2023/02/22 02:36:48;;;;;;;3.42;3.13;;;;;;;;;;2095873;28;20032;-69
2023/02/22 02:38:11;;;;;;;4.18;3.88;;;;;;;;;;2094135;28;20036;-69
2023/02/22 02:39:30;;;;;;;;;;;;;;;;;;2095606;28;20028;-69
2023/02/22 02:41:04;;;;;;;3.92;3.63;;;;;;;;;;2094907;28;20007;-69
2023/02/22 02:42:27;;;;;;;4.07;3.42;;;;;;;;;;2093179;28;20024;-69
2023/02/22 02:43:46;;;;;;;;;;;;;;;;;;2093543;28;20021;-69
2023/02/22 02:45:11;;;;;;;4.32;3.47;;;;;;;;;;2086739;28;19908;-69
2023/02/22 02:46:45;;;;;;;3.28;3.08;;;;;;;;;;2091711;28;20103;-69
2023/02/22 02:48:06;;;;;;;3.95;3.58;;;;;;;;;;2095067;28;20203;-68
2023/02/22 02:49:30;;;;;;;4.00;3.60;;;;;;;;;;2094946;28;20028;-69
2023/02/22 02:50:50;;;;;;;4.05;3.03;;;;;;;;;;2096506;28;20500;-69
2023/02/22 02:52:11;;;;;;;4.05;3.65;;;;;;;;;;2092293;28;20062;-69
2023/02/22 02:53:33;;;;;;;3.13;2.83;;;;;;;;;;2093037;28;20020;-69
2023/02/22 02:54:53;;;;;;;3.00;2.80;;;;;;;;;;2093880;28;20025;-69
2023/02/22 02:56:12;;;;;;;4.05;3.55;;;;;;;;;;2092623;28;20020;-68
2023/02/22 02:57:31;;;;;;;3.53;3.15;;;;;;;;;;2097037;28;20032;-68
2023/02/22 02:58:51;;;;;;;4.22;3.22;;;;;;;;;;2094513;28;20020;-68
2023/02/22 03:00:23;;;;;;;3.70;3.38;;;;;;;;;;2089832;28;20501;-68
2023/02/22 03:01:48;;;;;;;3.88;3.58;;;;;;;;;;2092941;28;20041;-68
2023/02/22 03:03:24;;;;;;;3.40;3.10;;;;;;;;;;2093371;28;20033;-68
2023/02/22 03:05:06;;;;;;;3.63;3.25;;;;;;;;;;2094450;28;20485;-68
2023/02/22 03:06:44;;;;;;;4.10;3.50;;;;;;;;;;2058466;28;20059;-68
2023/02/22 03:08:06;;;;;;;3.40;3.13;;;;;;;;;;2092661;28;20044;-69
2023/02/22 03:09:37;;;;;;;3.38;3.08;;;;;;;;;;2091439;28;20025;-68
2023/02/22 03:11:13;;;;;;;3.53;3.22;;;;;;;;;;2092500;28;20024;-68
2023/02/22 03:12:44;;;;;;;3.58;3.28;;;;;;;;;;2092125;28;20037;-68
2023/02/22 03:14:09;;;;;;;3.35;3.05;;;;;;;;;;2092323;28;20060;-69
2023/02/22 03:15:33;;;;;;;4.50;3.92;;;;;;;;;;2094023;28;20032;-68
2023/02/22 03:17:03;;;;;;;3.35;3.05;;;;;;;;;;2095378;28;20063;-68
2023/02/22 03:18:28;;;;;;;3.08;2.78;;;;;;;;;;2092901;28;20028;-68
2023/02/22 03:19:57;;;;;;;3.30;2.97;;;;;;;;;;2093117;28;20498;-69
2023/02/22 03:21:37;;;;;;;3.58;2.95;;;;;;;;;;2094458;28;20107;-68
2023/02/22 03:23:00;;;;;;;4.45;3.95;;;;;;;;;;2093779;28;20496;-68
2023/02/22 03:24:19;;;;;;;3.75;3.25;;;;;;;;;;2084900;28;20033;-68
2023/02/22 03:25:40;;;;;;;3.63;3.33;;;;;;;;;;2092925;28;20029;-68
2023/02/22 03:27:11;;;;;;;4.78;4.22;;;;;;;;;;2094911;28;20037;-68
2023/02/22 03:28:31;;;;;;;3.97;3.55;;;;;;;;;;2092731;28;20107;-68
2023/02/22 03:29:52;;;;;;;3.65;3.28;;;;;;;;;;2092835;28;20071;-68
2023/02/22 03:31:14;;;;;;;4.22;3.22;;;;;;;;;;2093805;28;20032;-69
2023/02/22 03:32:39;;;;;;;3.28;3.05;;;;;;;;;;2094453;28;20485;-68
2023/02/22 03:34:03;;;;;;;3.00;2.80;;;;;;;;;;2085443;28;20045;-69
2023/02/22 03:35:24;;;;;;;3.75;3.33;;;;;;;;;;2092476;28;20029;-69
2023/02/22 03:36:46;;;;;;;3.30;3.10;;;;;;;;;;2095317;28;20040;-68
2023/02/22 03:38:06;;;;;;;3.58;3.28;;;;;;;;;;2094232;28;20017;-68
2023/02/22 03:39:29;;;;;;;4.35;3.28;;;;;;;;;;2093549;28;20123;-69
2023/02/22 03:40:50;;;;;;;3.45;3.00;;;;;;;;;;2093670;28;20060;-68
2023/02/22 03:42:13;;;;;;;4.13;2.85;;;;;;;;;;2092185;28;20037;-68
2023/02/22 03:43:38;;;;;;;3.53;3.20;;;;;;;;;;2093601;28;20036;-69
2023/02/22 03:44:59;;;;;;;3.83;3.45;;;;;;;;;;2092159;28;20491;-69
2023/02/22 03:46:21;;;;;;;3.47;3.17;;;;;;;;;;2092602;28;20025;-69
2023/02/22 03:47:42;;;;;;;4.10;3.40;;;;;;;;;;2093885;28;20079;-69
2023/02/22 03:49:04;;;;;;;3.60;3.30;;;;;;;;;;2093780;28;20473;-69
2023/02/22 03:50:28;;;;;;;3.47;3.25;;;;;;;;;;2095224;28;20052;-69
2023/02/22 03:51:47;;;;;;;3.40;3.20;;;;;;;;;;2094264;28;20037;-69
2023/02/22 03:53:06;;;;;;;3.80;3.50;;;;;;;;;;2086003;28;20025;-69
2023/02/22 03:54:26;;;;;;;5.55;3.45;;;;;;;;;;2088302;28;20040;-68
2023/02/22 03:55:50;;;;;;;3.90;3.60;;;;;;;;;;2095973;28;20036;-69
2023/02/22 03:57:12;;;;;;;3.40;3.10;;;;;;;;;;2096074;28;20169;-69
2023/02/22 03:58:32;;;;;;;3.38;3.08;;;;;;;;;;2093724;28;21439;-69
2023/02/22 03:59:51;;;;;;;3.60;3.30;;;;;;;;;;2094778;28;20025;-69
2023/02/22 04:01:11;;;;;;;3.75;3.45;;;;;;;;;;2096437;28;20064;-69
2023/02/22 04:02:30;;;;;;;3.70;3.40;;;;;;;;;;2095218;28;20013;-69
2023/02/22 04:03:49;;;;;;;3.58;3.28;;;;;;;;;;2095119;28;20029;-69
2023/02/22 04:05:08;;;;;;;4.65;3.00;;;;;;;;;;2085089;28;20585;-70
2023/02/22 04:06:27;;;;;;;3.97;2.80;;;;;;;;;;2090710;28;20032;-68
2023/02/22 04:07:46;;;;;;;4.47;3.70;;;;;;;;;;2097246;28;20396;-69
2023/02/22 04:09:07;;;;;;;6.03;3.70;;;;;;;;;;2095217;28;20040;-68
2023/02/22 04:10:26;;;;;;;4.63;3.45;;;;;;;;;;2095844;28;20536;-68
2023/02/22 04:11:45;;;;;;;4.05;3.50;;;;;;;;;;2094975;28;20469;-68
2023/02/22 04:13:07;;;;;;;13.90;3.85;;;;;;;;;;2094551;28;20036;-68
2023/02/22 04:14:26;;;;;;;3.90;3.60;;;;;;;;;;2096626;28;20024;-68
2023/02/22 04:15:45;;;;;;;3.67;3.38;;;;;;;;;;2095012;28;20037;-69
2023/02/22 04:17:04;;;;;;;4.15;3.35;;;;;;;;;;2096263;28;20036;-68
2023/02/22 04:18:23;;;;;;;3.92;3.63;;;;;;;;;;2093517;28;20111;-68
2023/02/22 04:19:44;;;;;;;3.55;3.25;;;;;;;;;;2094866;28;20072;-70
2023/02/22 04:21:03;;;;;;;4.25;3.85;;;;;;;;;;2096620;28;20024;-68
2023/02/22 04:22:22;;;;;;;4.50;3.70;;;;;;;;;;2083156;28;20037;-69
2023/02/22 04:23:41;;;;;;;3.60;3.30;;;;;;;;;;2092915;28;20476;-68
2023/02/22 04:25:00;;;;;;;4.38;3.60;;;;;;;;;;2096766;28;20032;-69
2023/02/22 04:26:19;;;;;;;3.97;3.67;;;;;;;;;;2092863;28;20024;-69
2023/02/22 04:27:38;;;;;;;3.70;3.40;;;;;;;;;;2095644;28;20659;-70
2023/02/22 04:28:57;;;;;;;3.63;3.33;;;;;;;;;;2094669;28;20032;-70
2023/02/22 04:30:17;;;;;;;3.72;3.42;;;;;;;;;;2094174;28;20025;-70
2023/02/22 04:31:35;;;;;;;3.45;3.17;;;;;;;;;;2096889;28;20037;-70
2023/02/22 04:32:55;;;;;;;3.72;3.42;;;;;;;;;;2094469;28;20017;-70
2023/02/22 04:34:14;;;;;;;4.13;3.72;;;;;;;;;;2092279;28;20033;-70
2023/02/22 04:35:33;;;;;;;4.20;3.80;;;;;;;;;;2087050;28;20029;-71
2023/02/22 04:36:52;;;;;;;4.25;3.85;;;;;;;;;;2092427;28;20021;-70
2023/02/22 04:38:11;;;;;;;5.00;3.90;;;;;;;;;;2093074;28;20029;-71
2023/02/22 04:39:30;;;;;;;4.20;3.90;;;;;;;;;;2095685;28;20437;-70
2023/02/22 04:40:49;;;;;;;5.47;3.97;;;;;;;;;;2095672;28;20032;-70
2023/02/22 04:42:08;;;;;;;4.95;3.80;;;;;;;;;;2094414;28;20056;-70
2023/02/22 04:43:27;;;;;;;4.70;3.92;;;;;;;;;;2094538;28;20038;-70
2023/02/22 04:44:46;;;;;;;5.03;3.92;;;;;;;;;;2094956;28;20622;-72
2023/02/22 04:46:05;;;;;;;5.57;3.80;;;;;;;;;;2095463;28;20638;-72
2023/02/22 04:47:24;;;;;;;5.90;3.78;;;;;;;;;;2097331;28;20036;-72
2023/02/22 04:48:43;;;;;;;4.60;4.20;;;;;;;;;;2095053;28;20036;-71
2023/02/22 04:50:03;;;;;;;4.97;4.53;;;;;;;;;;2094467;28;20024;-71
2023/02/22 04:51:23;;;;;;;7.20;4.22;;;;;;;;;;2094621;28;20044;-71
2023/02/22 04:52:42;;;;;;;4.25;3.85;;;;;;;;;;2093274;28;20063;-70
2023/02/22 04:54:01;;;;;;;4.40;4.00;;;;;;;;;;2095306;28;20033;-71
2023/02/22 04:55:21;;;;;;;4.82;4.35;;;;;;;;;;2095197;28;20041;-71
2023/02/22 04:56:40;;;;;;;8.43;4.22;;;;;;;;;;2084992;28;20029;-70
2023/02/22 04:57:58;;;;;;;5.95;4.20;;;;;;;;;;2091595;28;20024;-71
2023/02/22 04:59:18;;;;;;;4.45;4.00;;;;;;;;;;2096773;28;20482;-71
2023/02/22 05:00:37;;;;;;;4.53;4.13;;;;;;;;;;2093121;28;20024;-71
2023/02/22 05:01:56;;;;;;;4.90;4.50;;;;;;;;;;2093058;28;20501;-70
2023/02/22 05:03:16;;;;;;;5.22;4.32;;;;;;;;;;2096167;28;20484;-70
2023/02/22 05:04:36;;;;;;;5.43;4.65;;;;;;;;;;2092638;28;20060;-70
2023/02/22 05:05:55;;;;;;;6.15;4.72;;;;;;;;;;2093295;28;20029;-70
2023/02/22 05:07:14;;;;;;;6.82;4.45;;;;;;;;;;2095124;28;20292;-70
2023/02/22 05:08:33;;;;;;;6.20;4.82;;;;;;;;;;2094327;28;20040;-69
2023/02/22 05:09:52;;;;;;;5.43;4.53;;;;;;;;;;2095122;28;20032;-70
2023/02/22 05:11:12;;;;;;;4.70;4.35;;;;;;;;;;2096176;28;20501;-70
2023/02/22 05:12:30;;;;;;;5.20;4.35;;;;;;;;;;2091997;28;20036;-68
2023/02/22 05:13:49;;;;;;;5.38;4.88;;;;;;;;;;2092910;28;20041;-69
2023/02/22 05:15:09;;;;;;;7.90;5.15;;;;;;;;;;2095118;28;20060;-69
2023/02/22 05:16:28;;;;;;;4.85;4.18;;;;;;;;;;2082440;28;20025;-71
2023/02/22 05:17:47;;;;;;;5.95;5.05;;;;;;;;;;2089678;28;20058;-68
2023/02/22 05:19:06;;;;;;;5.72;4.82;;;;;;;;;;2092422;28;20087;-68
2023/02/22 05:20:27;;;;;;;5.00;4.53;;;;;;;;;;2095254;28;20036;-67
2023/02/22 05:21:45;;;;;;;5.97;4.88;;;;;;;;;;2094277;28;20435;-67
2023/02/22 05:23:05;;;;;;;5.70;5.18;;;;;;;;;;2095391;28;20431;-67
2023/02/22 05:24:23;;;;;;;6.38;4.93;;;;;;;;;;2091305;28;20033;-67
2023/02/22 05:25:43;;;;;;;6.32;5.57;;;;;;;;;;2093395;28;20024;-67
2023/02/22 05:27:02;;;;;;;6.20;4.70;;;;;;;;;;2095812;28;20072;-68
2023/02/22 05:28:21;;;;;;;6.03;5.32;;;;;;;;;;2082805;28;20052;-70
2023/02/22 05:29:40;;;;;;;7.95;5.07;;;;;;;;;;2091096;28;20028;-67
2023/02/22 05:30:59;;;;;;;7.00;5.55;;;;;;;;;;2091181;28;20054;-68
2023/02/22 05:32:18;;;;;;;6.15;5.05;;;;;;;;;;2094162;28;20021;-67
2023/02/22 05:33:38;;;;;;;5.72;5.22;;;;;;;;;;2094336;28;20107;-67
2023/02/22 05:34:57;;;;;;;5.68;5.07;;;;;;;;;;2094536;28;20504;-68
2023/02/22 05:36:16;;;;;;;9.95;5.57;;;;;;;;;;2092275;28;20028;-68
2023/02/22 05:37:36;;;;;;;6.68;5.68;;;;;;;;;;2093718;28;20029;-68
2023/02/22 05:38:55;;;;;;;7.60;5.47;;;;;;;;;;2095927;28;20112;-67
2023/02/22 05:40:15;;;;;;;9.48;5.47;;;;;;;;;;2095195;28;20032;-69
2023/02/22 05:41:33;;;;;;;7.85;5.43;;;;;;;;;;2093013;28;20055;-67
2023/02/22 05:42:52;;;;;;;5.55;4.90;;;;;;;;;;2094579;28;20117;-68
2023/02/22 05:44:11;;;;;;;6.60;5.43;;;;;;;;;;2084426;28;20668;-68
2023/02/22 05:45:30;;;;;;;7.20;5.55;;;;;;;;;;2093439;28;20033;-68
2023/02/22 05:46:49;;;;;;;7.20;5.47;;;;;;;;;;2095671;28;20033;-68
2023/02/22 05:48:08;;;;;;;5.95;5.40;;;;;;;;;;2093857;28;20044;-71
2023/02/22 05:49:27;;;;;;;9.15;5.65;;;;;;;;;;2086979;28;20343;-69
2023/02/22 05:50:48;;;;;;;6.47;5.60;;;;;;;;;;2091400;28;20037;-69
2023/02/22 05:52:07;;;;;;;7.13;5.47;;;;;;;;;;2084888;28;20049;-69
2023/02/22 05:53:26;;;;;;;6.30;5.65;;;;;;;;;;2090640;28;20036;-69
2023/02/22 05:54:45;;;;;;;5.65;5.03;;;;;;;;;;2092306;28;20024;-68
2023/02/22 05:56:04;;;;;;;9.48;6.55;;;;;;;;;;2095282;28;20036;-68
2023/02/22 05:57:23;;;;;;;9.02;6.18;;;;;;;;;;2094734;28;20020;-69
2023/02/22 05:58:42;;;;;;;7.60;5.43;;;;;;;;;;2091733;28;20032;-68
2023/02/22 06:00:03;;;;;;;10.07;6.35;;;;;;;;;;2090706;28;20117;-69
2023/02/22 06:01:22;;;;;;;6.68;5.90;;;;;;;;;;2094995;28;20028;-70
2023/02/22 06:02:41;;;;;;;9.77;6.15;;;;;;;;;;2093570;28;20385;-69
2023/02/22 06:04:00;;;;;;;6.47;5.82;;;;;;;;;;2093238;28;20028;-69
2023/02/22 06:05:19;;;;;;;6.95;5.75;;;;;;;;;;2095776;28;20496;-69
2023/02/22 06:06:38;;;;;;;6.07;5.47;;;;;;;;;;2090732;28;20032;-69
2023/02/22 06:07:57;;;;;;;6.20;5.45;;;;;;;;;;2093673;28;20033;-69
2023/02/22 06:09:16;;;;;;;8.52;5.70;;;;;;;;;;2094235;28;20025;-69
2023/02/22 06:10:35;;;;;;;12.05;6.10;;;;;;;;;;2094733;28;20025;-68
2023/02/22 06:11:54;;;;;;;12.88;6.03;;;;;;;;;;2086999;28;20037;-69
2023/02/22 06:13:14;;;;;;;13.20;6.78;;;;;;;;;;2093801;28;20037;-67
2023/02/22 06:14:32;;;;;;;12.45;6.07;;;;;;;;;;2094048;28;20033;-67
2023/02/22 06:15:51;;;;;;;10.00;7.40;;;;;;;;;;2093264;28;20032;-70
2023/02/22 06:17:11;;;;;;;9.73;7.57;;;;;;;;;;2094188;28;20036;-69
2023/02/22 06:18:31;;;;;;;7.38;6.22;;;;;;;;;;2090186;28;20032;-68
2023/02/22 06:19:50;;;;;;;6.28;5.70;;;;;;;;;;2080862;28;20133;-70
2023/02/22 06:21:09;;;;;;;10.25;8.48;;;;;;;;;;2088467;28;20038;-68
2023/02/22 06:22:28;;;;;;;13.93;9.20;;;;;;;;;;2093787;28;20025;-68
2023/02/22 06:23:47;;;;;;;10.40;6.75;;;;;;;;;;2095245;28;20024;-68
2023/02/22 06:25:07;;;;;;;15.32;9.65;;;;;;;;;;2094343;28;20147;-67
2023/02/22 06:26:26;;;;;;;11.10;7.30;;;;;;;;;;2093688;28;20036;-67
2023/02/22 06:27:45;;;;;;;7.13;6.22;;;;;;;;;;2093463;28;20033;-71
2023/02/22 06:29:04;;;;;;;8.43;6.13;;;;;;;;;;2093701;28;20024;-67
2023/02/22 06:30:24;;;;;;;7.80;6.22;;;;;;;;;;2082135;28;20457;-68
2023/02/22 06:31:43;;;;;;;8.13;6.00;;;;;;;;;;2088241;28;20033;-67
2023/02/22 06:33:02;;;;;;;6.65;5.95;;;;;;;;;;2092809;28;20064;-67
2023/02/22 06:34:21;;;;;;;13.15;8.90;;;;;;;;;;2091791;28;20041;-70
2023/02/22 06:35:41;;;;;;;24.90;14.30;;;;;;;;;;2091045;28;20045;-68
2023/02/22 06:37:00;;;;;;;12.25;7.43;;;;;;;;;;2090173;28;20568;-67
2023/02/22 06:38:20;;;;;;;6.72;6.07;;;;;;;;;;2090627;28;20033;-67
2023/02/22 06:39:39;;;;;;;9.65;7.00;;;;;;;;;;2092047;28;20032;-70
2023/02/22 06:40:58;;;;;;;10.85;6.75;;;;;;;;;;2093737;28;20044;-69
2023/02/22 06:42:17;;;;;;;9.63;6.88;;;;;;;;;;2093173;28;20058;-68
2023/02/22 06:43:36;;;;;;;8.20;6.47;;;;;;;;;;2092574;28;20485;-68
2023/02/22 06:44:55;;;;;;;9.25;6.80;;;;;;;;;;2093078;28;20067;-68
2023/02/22 06:46:14;;;;;;;11.30;6.82;;;;;;;;;;2094991;28;20472;-68
2023/02/22 06:47:38;;;;;;;13.02;7.63;;;;;;;;;;2092623;28;20033;-68
2023/02/22 06:49:01;;;;;;;8.27;6.80;;;;;;;;;;2091859;28;20028;-68
2023/02/22 06:50:25;;;;;;;12.07;6.45;;;;;;;;;;2092134;28;20477;-69
2023/02/22 06:51:44;;;;;;;8.77;6.30;;;;;;;;;;2093079;28;21010;-69
2023/02/22 06:53:03;;;;;;;7.85;6.68;;;;;;;;;;2093354;28;20021;-69
2023/02/22 06:54:23;;;;;;;10.18;6.43;;;;;;;;;;2092588;28;20476;-69
2023/02/22 06:55:42;;;;;;;11.35;7.10;;;;;;;;;;2093691;28;20028;-69
2023/02/22 06:57:01;;;;;;;10.85;6.75;;;;;;;;;;2095494;28;20028;-68
2023/02/22 06:58:20;;;;;;;10.30;7.50;;;;;;;;;;2094002;28;20044;-68
2023/02/22 06:59:39;;;;;;;8.77;6.68;;;;;;;;;;2092832;28;20032;-68
2023/02/22 07:01:00;;;;;;;9.80;7.05;;;;;;;;;;2095310;28;20033;-68
2023/02/22 07:02:18;;;;;;;10.20;6.40;;;;;;;;;;2094913;28;20697;-69
2023/02/22 07:03:37;;;;;;;11.63;7.10;;;;;;;;;;2093885;28;20440;-69
2023/02/22 07:04:56;;;;;;;11.50;7.53;;;;;;;;;;2092602;28;20025;-69
2023/02/22 07:06:15;;;;;;;16.15;7.70;;;;;;;;;;2094110;28;20546;-68
2023/02/22 07:07:34;;;;;;;9.70;7.25;;;;;;;;;;2094690;28;20033;-68
2023/02/22 07:08:53;;;;;;;12.95;7.32;;;;;;;;;;2094985;28;20032;-69
2023/02/22 07:10:18;;;;;;;14.82;7.75;;;;;;;;;;2094911;28;20033;-69
2023/02/22 07:11:37;;;;;;;17.25;8.35;;;;;;;;;;2095078;28;20107;-69
2023/02/22 07:12:56;;;;;;;13.90;8.38;;;;;;;;;;2096109;28;20103;-69
2023/02/22 07:14:16;;;;;;;14.63;8.55;;;;;;;;;;2094661;28;20033;-69
2023/02/22 07:15:35;;;;;;;14.25;8.35;;;;;;;;;;2084561;28;20108;-68
2023/02/22 07:16:54;;;;;;;10.63;7.75;;;;;;;;;;2088357;28;20104;-69
2023/02/22 07:18:14;;;;;;;8.95;6.85;;;;;;;;;;2093783;28;20036;-69
2023/02/22 07:19:33;;;;;;;10.23;7.35;;;;;;;;;;2084832;28;20025;-69
2023/02/22 07:20:53;;;;;;;10.35;7.38;;;;;;;;;;2090010;28;20024;-68
2023/02/22 07:22:12;;;;;;;13.45;7.07;;;;;;;;;;2096075;28;20132;-68
2023/02/22 07:23:30;;;;;;;17.40;7.88;;;;;;;;;;2092909;28;20036;-68
2023/02/22 07:24:49;;;;;;;13.10;6.90;;;;;;;;;;2095309;28;20111;-68
2023/02/22 07:26:08;;;;;;;16.20;8.13;;;;;;;;;;2093582;28;20381;-71
2023/02/22 07:27:27;;;;;;;13.23;8.07;;;;;;;;;;2095192;28;20434;-67
2023/02/22 07:28:46;;;;;;;13.18;7.65;;;;;;;;;;2096020;28;20037;-68
2023/02/22 07:30:06;;;;;;;9.25;6.68;;;;;;;;;;2091855;28;20036;-69
2023/02/22 07:31:25;;;;;;;9.20;6.93;;;;;;;;;;2096259;28;20040;-70
2023/02/22 07:32:45;;;;;;;10.32;7.45;;;;;;;;;;2094142;28;20037;-70
2023/02/22 07:34:04;;;;;;;11.05;7.78;;;;;;;;;;2093510;28;20111;-70
2023/02/22 07:35:24;;;;;;;7.80;7.05;;;;;;;;;;2084828;28;20029;-70
2023/02/22 07:36:43;;;;;;;8.23;6.95;;;;;;;;;;2090953;28;20036;-70
2023/02/22 07:38:04;;;;;;;7.63;6.35;;;;;;;;;;2094563;28;20025;-70
2023/02/22 07:39:24;;;;;;;7.35;6.35;;;;;;;;;;2095202;28;20032;-70
2023/02/22 07:40:43;;;;;;;10.77;6.13;;;;;;;;;;2095879;28;20052;-69
2023/02/22 07:42:01;;;;;;;8.80;6.60;;;;;;;;;;2094848;28;20032;-70
2023/02/22 07:43:21;;;;;;;14.57;7.32;;;;;;;;;;2094365;28;20021;-70
2023/02/22 07:44:40;;;;;;;9.18;6.72;;;;;;;;;;2094032;28;20460;-70
2023/02/22 07:46:01;;;;;;;10.13;6.75;;;;;;;;;;2094938;28;20488;-70
2023/02/22 07:47:20;;;;;;;8.27;6.47;;;;;;;;;;2096044;28;20041;-70
2023/02/22 07:48:39;;;;;;;9.52;6.88;;;;;;;;;;2095457;28;20036;-70
2023/02/22 07:49:58;;;;;;;21.02;7.00;;;;;;;;;;2094544;28;20033;-70
2023/02/22 07:51:19;;;;;;;14.82;6.85;;;;;;;;;;2095209;28;20028;-70
2023/02/22 07:52:38;;;;;;;17.50;7.13;;;;;;;;;;2096609;28;20036;-70
2023/02/22 07:53:57;;;;;;;8.13;6.65;;;;;;;;;;2095760;28;20115;-70
2023/02/22 07:55:17;;;;;;;12.80;7.47;;;;;;;;;;2094113;28;20108;-68
2023/02/22 07:56:36;;;;;;;7.57;6.18;;;;;;;;;;2094115;28;20017;-67
2023/02/22 07:57:57;;;;;;;9.40;6.35;;;;;;;;;;2094691;28;20036;-69
2023/02/22 07:59:16;;;;;;;10.68;6.63;;;;;;;;;;2096359;28;20056;-69
2023/02/22 08:00:36;;;;;;;10.68;6.38;;;;;;;;;;2093113;28;20492;-69
2023/02/22 08:01:55;;;;;;;8.45;6.70;;;;;;;;;;2094820;28;20056;-68
2023/02/22 08:03:15;;;;;;;10.02;6.80;;;;;;;;;;2085608;28;20021;-70